West Lafayette, IN (47907)

2:28 PM EDT on May 25, 2017 (GMT -0400)
New Chauncey | | Change Station
Active Advisory: Flood Warning

Elev 614 ft 40.43 °N, 86.90 °W | Updated 36 seconds ago

Overcast
Overcast
62.1 °F
Feels Like 62.1 °F
N
0.0
Wind Variable Wind from SE
Gusts 1.3 mph

Today
High -- | Low -- °F
--% Chance of Precip.
Yesterday
High -- | Low -- °F
Precip. -- in
Pressure 29.61 in
Visibility 10.0 miles
Clouds Mostly Cloudy 2200 ft
Overcast 2600 ft
Dew Point 58 °F
Humidity 88%
Rainfall 0.07 in
Snow Depth Not available.
6:23 AM 9:06 PM
Waning Crescent, 0% visible
METAR KLAF 251754Z 33015G23KT 10SM BKN022 OVC026 16/13 A2961 RMK AO2 SLP026 T01610133 10172 20122 51017
Pressure 29.61 in
Visibility 10.0 miles
Clouds Mostly Cloudy 2200 ft
Overcast 2600 ft
Dew Point 58 °F
Humidity 88%
Rainfall 0.07 in
Snow Depth Not available.
6:23 AM 9:06 PM
Waning Crescent, 0% visible
METAR KLAF 251754Z 33015G23KT 10SM BKN022 OVC026 16/13 A2961 RMK AO2 SLP026 T01610133 10172 20122 51017

Get Your Daily Forecast Email!

Thanks for signing up!

Be on the lookout for a verification email in your inbox.

You'll start receiving severe weather alerts in your inbox..

×

10-Day Weather Forecast

Almanac

Astronomy

May. 25, 2017 Rise Set
Actual Time
Civil Twilight
Nautical Twilight
Astronomical Twilight
Moon
Length of Visible Light
Length of Day
Tomorrow will be .
, % of the Moon is Illuminated

Today's Extremes

State Highs State Lows

Community

WunderPhotos

Category 6

Welcome to Category 6. This is the collective home for Weather Underground's featured writeups by Dr. Jeff Masters (right), Bob Henson (left), Chris Burt, and other regular contributors.

Nearby

Air Quality

  Air Quality AQ Index Pollutant
Not available.

Snow Depth

Station Depth Elevation

Earthquake Activity

City Distance Mag. Time & Date
Minimum magnitude displayed is 2.5.

Coastal Water Temperatures

Place Temperature

Stations

Nearby Weather Stations

Station Location Temp. Windchill Dew Point Humidity Wind Precip. Elev Updated Type
                   

Watches & Warnings

Flood Warning
Issued: 1:56 PM EDT May. 25, 2017 – National Weather Service

The Flood Warning continues for
the Wabash River at Lafayette.
* Until Tuesday afternoon.
* At 12:30 PM Thursday the stage was 10.8 feet.
* Flood stage is 11.0 feet.
* Minor flooding is forecast.
* Forecast... rise above flood stage by tomorrow early afternoon and
continue to rise to near 13.6 feet by Sunday morning. The river
will fall below flood stage by early Tuesday morning.
* At 14.0 feet... lowland flooding is in progress. High water affects
river Cabins near north 9th street. Low County roads are nearly
impassable. Tapawingo park in West Lafayette begins to flood.


Lat... Lon 4054 8670 4040 8688 4033 8709 4040 8709
      4048 8688 4056 8673